createdAt,value
2022-12-01T00:05:06.881Z,61.16
2022-12-01T00:15:11.724Z,61.30
2022-12-01T00:25:18.615Z,61.48
2022-12-01T00:35:22.198Z,62.16
2022-12-01T00:45:26.065Z,62.38
2022-12-01T00:55:29.619Z,62.66
2022-12-01T01:05:41.123Z,62.28
2022-12-01T01:15:44.895Z,62.69
2022-12-01T01:25:48.438Z,62.79
2022-12-01T01:35:53.608Z,62.77
2022-12-01T01:45:57.273Z,62.83
2022-12-01T01:56:03.377Z,63.00
2022-12-01T02:06:12.031Z,62.82
2022-12-01T02:16:41.981Z,62.82
2022-12-01T02:27:25.133Z,62.92
2022-12-01T02:37:46.396Z,63.01
2022-12-01T02:47:56.196Z,63.56
2022-12-01T02:58:00.352Z,63.80
2022-12-01T03:08:14.087Z,63.76
2022-12-01T03:18:37.901Z,63.91
2022-12-01T03:28:47.435Z,63.60
2022-12-01T03:39:00.340Z,63.52
2022-12-01T03:49:06.143Z,63.81
2022-12-01T03:59:11.592Z,63.40
2022-12-01T04:09:15.156Z,63.44
2022-12-01T04:19:21.867Z,63.37
2022-12-01T04:29:25.413Z,62.92
2022-12-01T04:39:28.949Z,62.92
2022-12-01T04:49:33.932Z,62.27
2022-12-01T04:59:39.356Z,62.41
2022-12-01T05:09:44.417Z,62.24
2022-12-01T05:20:06.674Z,62.03
2022-12-01T05:30:12.438Z,61.88
2022-12-01T05:40:18.439Z,61.85
2022-12-01T05:50:23.481Z,61.76
2022-12-01T06:00:27.264Z,61.86
2022-12-01T06:10:30.905Z,61.90
2022-12-01T06:20:34.397Z,61.77
2022-12-01T06:30:40.072Z,62.02
2022-12-01T06:40:44.625Z,62.02
2022-12-01T06:50:48.415Z,61.86
2022-12-01T07:00:52.357Z,61.67
2022-12-01T07:11:01.046Z,61.79
2022-12-01T07:21:07.676Z,61.51
2022-12-01T07:31:15.984Z,61.55
2022-12-01T07:41:21.896Z,61.68
2022-12-01T07:51:27.341Z,61.52
2022-12-01T08:01:32.961Z,61.33
2022-12-01T08:11:36.884Z,61.34
2022-12-01T08:21:41.202Z,61.19
2022-12-01T08:31:45.176Z,61.90
2022-12-01T08:41:49.119Z,62.61
2022-12-01T08:51:52.705Z,63.25
2022-12-01T09:01:58.059Z,64.04
2022-12-01T09:12:03.788Z,64.41
2022-12-01T09:22:08.444Z,63.90
2022-12-01T09:32:13.643Z,63.53
2022-12-01T09:42:33.791Z,62.87
2022-12-01T09:52:43.766Z,62.91
2022-12-01T10:03:12.813Z,62.80
2022-12-01T10:13:23.314Z,62.62
2022-12-01T10:23:47.921Z,62.19
2022-12-01T10:34:00.318Z,62.41
2022-12-01T10:44:06.225Z,62.84
2022-12-01T10:54:13.481Z,63.00
2022-12-01T11:04:45.424Z,63.24
2022-12-01T11:14:57.602Z,62.95
2022-12-01T11:25:06.910Z,63.12
2022-12-01T11:35:13.593Z,62.68
2022-12-01T11:45:20.823Z,62.08
2022-12-01T11:55:27.589Z,61.55
2022-12-01T12:06:17.712Z,61.44
2022-12-01T12:17:08.989Z,60.93
2022-12-01T12:27:47.419Z,60.46
2022-12-01T12:37:50.988Z,59.89
2022-12-01T12:48:14.782Z,59.71
2022-12-01T12:58:29.488Z,60.17
2022-12-01T13:08:56.622Z,60.90
2022-12-01T13:19:12.799Z,60.67
2022-12-01T13:29:20.899Z,60.79
2022-12-01T13:39:29.776Z,60.57
2022-12-01T13:49:42.396Z,60.12
2022-12-01T14:00:01.122Z,59.80
2022-12-01T14:10:26.164Z,59.42
2022-12-01T14:20:36.122Z,59.69
2022-12-01T14:30:47.841Z,60.69
2022-12-01T14:40:55.732Z,61.35
2022-12-01T14:51:20.014Z,62.20
2022-12-01T15:13:59.529Z,62.50
2022-12-01T15:24:22.415Z,62.64
2022-12-01T15:34:31.028Z,63.11
2022-12-01T15:44:37.061Z,63.63
2022-12-01T15:54:40.880Z,63.27
2022-12-01T16:04:44.525Z,62.69
2022-12-01T16:15:10.194Z,61.89
2022-12-01T16:25:36.346Z,61.15
2022-12-01T16:35:39.937Z,60.19
2022-12-01T16:45:44.822Z,59.68
2022-12-01T16:55:53.263Z,59.35
2022-12-01T17:06:00.863Z,59.15
2022-12-01T17:16:07.270Z,58.87
2022-12-01T17:26:14.349Z,58.30
2022-12-01T17:36:19.308Z,58.18
2022-12-01T17:46:23.534Z,58.23
2022-12-01T17:56:27.328Z,58.60
2022-12-01T18:06:30.995Z,58.92
2022-12-01T18:16:35.047Z,59.36
2022-12-01T18:26:40.688Z,59.28
2022-12-01T18:36:44.466Z,59.02
2022-12-01T18:46:48.132Z,58.31
2022-12-01T18:56:59.041Z,57.90
2022-12-01T19:07:03.385Z,57.87
2022-12-01T19:17:07.513Z,57.98
2022-12-01T19:27:11.190Z,58.08
2022-12-01T19:37:14.814Z,58.04
2022-12-01T19:47:22.078Z,58.09
2022-12-01T19:57:26.312Z,58.07
2022-12-01T20:07:30.731Z,58.61
2022-12-01T20:17:37.954Z,59.14
2022-12-01T20:27:42.807Z,59.02
2022-12-01T20:37:46.581Z,58.93
2022-12-01T20:47:50.380Z,58.81
2022-12-01T20:57:54.007Z,59.13
2022-12-01T21:07:57.777Z,59.37
2022-12-01T21:18:10.021Z,59.17
2022-12-01T21:28:19.754Z,59.36
2022-12-01T21:38:23.574Z,59.29
2022-12-01T21:48:35.300Z,59.33
2022-12-01T21:58:39.133Z,59.46
2022-12-01T22:08:46.509Z,58.64
2022-12-01T22:18:56.302Z,58.41
2022-12-01T22:29:00.734Z,58.34
2022-12-01T22:39:25.305Z,57.72
2022-12-01T22:49:30.210Z,57.15
2022-12-01T22:59:39.723Z,56.90
2022-12-01T23:09:44.639Z,56.87
2022-12-01T23:19:55.198Z,56.82
2022-12-01T23:29:59.435Z,56.70
2022-12-01T23:40:15.266Z,56.68
2022-12-01T23:50:25.296Z,56.59
